Terminal Aerodrome Forecast
Issued by NWS

Home | Current Version | Previous Version | Text Only | Print | Product List | Glossary On
Versions: 1 2 3 4 5 6 7 8 9 10 11 12 13 14 15 16 17 18 19 20 21 22 23
986
FTUS41 KALY 131052 AAB
TAFPSF
TAF AMD
KPSF 131052Z 1311/1406 24004KT P6SM VCSH BKN025 OVC080
      TEMPO 1311/1312 2SM -SHSN BR SCT025 OVC080
     FM131300 29012G20KT P6SM SCT040 BKN070
     FM131700 31020G32KT P6SM BKN040
     FM140000 31015G25KT P6SM FEW040=

USA.gov is the U.S. government's official web portal to all federal, state and local government web resources and services.